sensor_id;sensor_type;location;lat;lon;timestamp;temperature;humidity
14079;DHT22;7115;50.150;8.568;2023-05-09T00:01:09;16.30;99.90
14079;DHT22;7115;50.150;8.568;2023-05-09T00:03:36;16.30;99.90
14079;DHT22;7115;50.150;8.568;2023-05-09T00:06:03;16.40;99.90
14079;DHT22;7115;50.150;8.568;2023-05-09T00:08:30;16.40;99.90
14079;DHT22;7115;50.150;8.568;2023-05-09T00:10:57;16.40;99.90
14079;DHT22;7115;50.150;8.568;2023-05-09T00:13:24;16.40;99.90
14079;DHT22;7115;50.150;8.568;2023-05-09T00:15:51;16.40;99.90
14079;DHT22;7115;50.150;8.568;2023-05-09T00:18:24;16.60;99.90
14079;DHT22;7115;50.150;8.568;2023-05-09T00:20:51;16.40;99.90
14079;DHT22;7115;50.150;8.568;2023-05-09T00:23:18;16.40;99.90
14079;DHT22;7115;50.150;8.568;2023-05-09T00:25:45;16.40;99.90
14079;DHT22;7115;50.150;8.568;2023-05-09T00:28:11;16.50;99.90
14079;DHT22;7115;50.150;8.568;2023-05-09T00:30:38;16.50;99.90
14079;DHT22;7115;50.150;8.568;2023-05-09T00:33:05;16.50;99.90
14079;DHT22;7115;50.150;8.568;2023-05-09T00:35:34;16.50;99.90
14079;DHT22;7115;50.150;8.568;2023-05-09T00:38:01;16.50;99.90
14079;DHT22;7115;50.150;8.568;2023-05-09T00:40:28;16.60;99.90
14079;DHT22;7115;50.150;8.568;2023-05-09T00:42:55;16.60;99.90
14079;DHT22;7115;50.150;8.568;2023-05-09T00:45:24;16.60;99.90
14079;DHT22;7115;50.150;8.568;2023-05-09T00:47:51;16.60;99.90
14079;DHT22;7115;50.150;8.568;2023-05-09T00:50:18;16.60;99.90
14079;DHT22;7115;50.150;8.568;2023-05-09T00:52:46;16.60;99.90
14079;DHT22;7115;50.150;8.568;2023-05-09T00:55:14;16.60;99.90
14079;DHT22;7115;50.150;8.568;2023-05-09T00:57:42;16.60;99.90
14079;DHT22;7115;50.150;8.568;2023-05-09T01:00:10;16.60;99.90
14079;DHT22;7115;50.150;8.568;2023-05-09T01:02:39;16.70;99.90
14079;DHT22;7115;50.150;8.568;2023-05-09T01:05:07;16.70;99.90
14079;DHT22;7115;50.150;8.568;2023-05-09T01:07:37;16.70;99.90
14079;DHT22;7115;50.150;8.568;2023-05-09T01:10:12;16.70;99.90
14079;DHT22;7115;50.150;8.568;2023-05-09T01:12:57;16.70;99.90
14079;DHT22;7115;50.150;8.568;2023-05-09T01:15:30;16.70;99.90
14079;DHT22;7115;50.150;8.568;2023-05-09T01:18:05;16.70;99.90
14079;DHT22;7115;50.150;8.568;2023-05-09T01:20:36;16.70;99.90
14079;DHT22;7115;50.150;8.568;2023-05-09T01:26:01;16.70;99.90
14079;DHT22;7115;50.150;8.568;2023-05-09T01:28:36;16.70;99.90
14079;DHT22;7115;50.150;8.568;2023-05-09T01:31:07;16.70;99.90
14079;DHT22;7115;50.150;8.568;2023-05-09T01:33:38;16.70;99.90
14079;DHT22;7115;50.150;8.568;2023-05-09T01:36:10;16.70;99.90
14079;DHT22;7115;50.150;8.568;2023-05-09T01:38:38;16.70;99.90
14079;DHT22;7115;50.150;8.568;2023-05-09T01:41:08;16.70;99.90
14079;DHT22;7115;50.150;8.568;2023-05-09T01:43:37;16.70;99.90
14079;DHT22;7115;50.150;8.568;2023-05-09T01:46:08;16.80;99.90
14079;DHT22;7115;50.150;8.568;2023-05-09T01:48:36;16.80;99.90
14079;DHT22;7115;50.150;8.568;2023-05-09T01:51:04;16.80;99.90
14079;DHT22;7115;50.150;8.568;2023-05-09T01:53:32;16.80;99.90
14079;DHT22;7115;50.150;8.568;2023-05-09T01:56:01;16.80;99.90
14079;DHT22;7115;50.150;8.568;2023-05-09T01:58:30;16.80;99.90
14079;DHT22;7115;50.150;8.568;2023-05-09T02:00:59;16.80;99.90
14079;DHT22;7115;50.150;8.568;2023-05-09T02:03:27;16.70;99.90
14079;DHT22;7115;50.150;8.568;2023-05-09T02:05:55;16.80;99.90
14079;DHT22;7115;50.150;8.568;2023-05-09T02:08:22;16.70;99.90
14079;DHT22;7115;50.150;8.568;2023-05-09T02:10:49;16.70;99.90
14079;DHT22;7115;50.150;8.568;2023-05-09T02:13:16;16.70;99.90
14079;DHT22;7115;50.150;8.568;2023-05-09T02:15:44;16.60;99.90
14079;DHT22;7115;50.150;8.568;2023-05-09T02:18:11;16.60;99.90
14079;DHT22;7115;50.150;8.568;2023-05-09T02:20:40;16.60;99.90
14079;DHT22;7115;50.150;8.568;2023-05-09T02:23:07;16.60;99.90
14079;DHT22;7115;50.150;8.568;2023-05-09T02:25:34;16.50;99.90
14079;DHT22;7115;50.150;8.568;2023-05-09T02:28:02;16.50;99.90
14079;DHT22;7115;50.150;8.568;2023-05-09T02:30:34;16.50;99.90
14079;DHT22;7115;50.150;8.568;2023-05-09T02:33:06;16.50;99.90
14079;DHT22;7115;50.150;8.568;2023-05-09T02:35:34;16.50;99.90
14079;DHT22;7115;50.150;8.568;2023-05-09T02:38:03;16.50;99.90
14079;DHT22;7115;50.150;8.568;2023-05-09T02:40:29;16.50;99.90
14079;DHT22;7115;50.150;8.568;2023-05-09T02:42:56;16.50;99.90
14079;DHT22;7115;50.150;8.568;2023-05-09T02:45:23;16.40;99.90
14079;DHT22;7115;50.150;8.568;2023-05-09T02:47:50;16.40;99.90
14079;DHT22;7115;50.150;8.568;2023-05-09T02:50:17;16.40;99.90
14079;DHT22;7115;50.150;8.568;2023-05-09T02:52:44;16.40;99.90
14079;DHT22;7115;50.150;8.568;2023-05-09T02:55:12;16.40;99.90
14079;DHT22;7115;50.150;8.568;2023-05-09T02:57:40;16.50;99.90
14079;DHT22;7115;50.150;8.568;2023-05-09T03:00:08;16.50;99.90
14079;DHT22;7115;50.150;8.568;2023-05-09T03:02:35;16.50;99.90
14079;DHT22;7115;50.150;8.568;2023-05-09T03:05:02;16.50;99.90
14079;DHT22;7115;50.150;8.568;2023-05-09T03:07:29;16.50;99.90
14079;DHT22;7115;50.150;8.568;2023-05-09T03:09:56;16.60;99.90
14079;DHT22;7115;50.150;8.568;2023-05-09T03:12:24;16.50;99.90
14079;DHT22;7115;50.150;8.568;2023-05-09T03:14:52;16.60;99.90
14079;DHT22;7115;50.150;8.568;2023-05-09T03:17:18;16.50;99.90
14079;DHT22;7115;50.150;8.568;2023-05-09T03:19:47;16.50;99.90
14079;DHT22;7115;50.150;8.568;2023-05-09T03:22:14;16.50;99.90
14079;DHT22;7115;50.150;8.568;2023-05-09T03:24:41;16.50;99.90
14079;DHT22;7115;50.150;8.568;2023-05-09T03:27:09;16.50;99.90
14079;DHT22;7115;50.150;8.568;2023-05-09T03:29:37;16.50;99.90
14079;DHT22;7115;50.150;8.568;2023-05-09T03:32:04;16.60;99.90
14079;DHT22;7115;50.150;8.568;2023-05-09T03:34:31;16.50;99.90
14079;DHT22;7115;50.150;8.568;2023-05-09T03:36:58;16.50;99.90
14079;DHT22;7115;50.150;8.568;2023-05-09T03:39:25;16.50;99.90
14079;DHT22;7115;50.150;8.568;2023-05-09T03:41:52;16.60;99.90
14079;DHT22;7115;50.150;8.568;2023-05-09T03:44:19;16.50;99.90
14079;DHT22;7115;50.150;8.568;2023-05-09T03:46:47;16.50;99.90
14079;DHT22;7115;50.150;8.568;2023-05-09T03:49:14;16.50;99.90
14079;DHT22;7115;50.150;8.568;2023-05-09T03:51:41;16.50;99.90
14079;DHT22;7115;50.150;8.568;2023-05-09T03:54:08;16.50;99.90
14079;DHT22;7115;50.150;8.568;2023-05-09T03:56:34;16.50;99.90
14079;DHT22;7115;50.150;8.568;2023-05-09T03:59:01;16.50;99.90
14079;DHT22;7115;50.150;8.568;2023-05-09T04:01:28;16.50;99.90
14079;DHT22;7115;50.150;8.568;2023-05-09T04:03:57;16.40;99.90
14079;DHT22;7115;50.150;8.568;2023-05-09T04:06:24;16.50;99.90
14079;DHT22;7115;50.150;8.568;2023-05-09T04:08:51;16.50;99.90
14079;DHT22;7115;50.150;8.568;2023-05-09T04:11:18;16.50;99.90
14079;DHT22;7115;50.150;8.568;2023-05-09T04:13:45;16.40;99.90
14079;DHT22;7115;50.150;8.568;2023-05-09T04:16:11;16.40;99.90
14079;DHT22;7115;50.150;8.568;2023-05-09T04:18:38;16.40;99.90
14079;DHT22;7115;50.150;8.568;2023-05-09T04:21:09;16.40;99.90
14079;DHT22;7115;50.150;8.568;2023-05-09T04:23:36;16.40;99.90
14079;DHT22;7115;50.150;8.568;2023-05-09T04:26:04;16.40;99.90
14079;DHT22;7115;50.150;8.568;2023-05-09T04:28:31;16.40;99.90
14079;DHT22;7115;50.150;8.568;2023-05-09T04:30:58;16.40;99.90
14079;DHT22;7115;50.150;8.568;2023-05-09T04:33:25;16.50;99.90
14079;DHT22;7115;50.150;8.568;2023-05-09T04:35:52;16.50;99.90
14079;DHT22;7115;50.150;8.568;2023-05-09T04:38:21;16.50;99.90
14079;DHT22;7115;50.150;8.568;2023-05-09T04:40:48;16.50;99.90
14079;DHT22;7115;50.150;8.568;2023-05-09T04:43:15;16.60;99.90
14079;DHT22;7115;50.150;8.568;2023-05-09T04:45:43;16.60;99.90
14079;DHT22;7115;50.150;8.568;2023-05-09T04:48:11;16.60;99.90
14079;DHT22;7115;50.150;8.568;2023-05-09T04:50:37;16.60;99.90
14079;DHT22;7115;50.150;8.568;2023-05-09T04:53:04;16.70;99.90
14079;DHT22;7115;50.150;8.568;2023-05-09T04:55:32;16.70;99.90
14079;DHT22;7115;50.150;8.568;2023-05-09T04:57:59;16.70;99.90
14079;DHT22;7115;50.150;8.568;2023-05-09T05:00:26;16.80;99.90
14079;DHT22;7115;50.150;8.568;2023-05-09T05:02:53;16.80;99.90
14079;DHT22;7115;50.150;8.568;2023-05-09T05:05:20;16.90;99.90
14079;DHT22;7115;50.150;8.568;2023-05-09T05:07:51;16.90;99.90
14079;DHT22;7115;50.150;8.568;2023-05-09T05:10:19;17.00;99.90
14079;DHT22;7115;50.150;8.568;2023-05-09T05:12:47;17.10;99.90
14079;DHT22;7115;50.150;8.568;2023-05-09T05:15:14;17.10;99.90
14079;DHT22;7115;50.150;8.568;2023-05-09T05:17:42;17.20;99.90
14079;DHT22;7115;50.150;8.568;2023-05-09T05:20:09;17.20;99.90
14079;DHT22;7115;50.150;8.568;2023-05-09T05:22:36;17.30;99.90
14079;DHT22;7115;50.150;8.568;2023-05-09T05:25:03;17.40;99.90
14079;DHT22;7115;50.150;8.568;2023-05-09T05:27:30;17.40;99.90
14079;DHT22;7115;50.150;8.568;2023-05-09T05:29:59;17.50;99.90
14079;DHT22;7115;50.150;8.568;2023-05-09T05:32:26;17.50;99.90
14079;DHT22;7115;50.150;8.568;2023-05-09T05:34:53;17.50;99.90
14079;DHT22;7115;50.150;8.568;2023-05-09T05:37:19;17.60;99.90
14079;DHT22;7115;50.150;8.568;2023-05-09T05:39:46;17.70;99.90
14079;DHT22;7115;50.150;8.568;2023-05-09T05:42:13;17.90;99.90
14079;DHT22;7115;50.150;8.568;2023-05-09T05:44:40;18.00;99.90
14079;DHT22;7115;50.150;8.568;2023-05-09T05:47:09;18.10;99.90
14079;DHT22;7115;50.150;8.568;2023-05-09T05:49:36;18.10;99.90
14079;DHT22;7115;50.150;8.568;2023-05-09T05:52:03;18.20;99.90
14079;DHT22;7115;50.150;8.568;2023-05-09T05:54:30;18.20;99.90
14079;DHT22;7115;50.150;8.568;2023-05-09T05:56:57;18.20;99.90
14079;DHT22;7115;50.150;8.568;2023-05-09T05:59:23;18.30;99.90
14079;DHT22;7115;50.150;8.568;2023-05-09T06:01:50;18.40;99.90
14079;DHT22;7115;50.150;8.568;2023-05-09T06:04:19;18.40;99.90
14079;DHT22;7115;50.150;8.568;2023-05-09T06:06:46;18.50;99.90
14079;DHT22;7115;50.150;8.568;2023-05-09T06:09:13;18.60;99.90
14079;DHT22;7115;50.150;8.568;2023-05-09T06:11:40;18.60;99.90
14079;DHT22;7115;50.150;8.568;2023-05-09T06:14:07;18.70;99.90
14079;DHT22;7115;50.150;8.568;2023-05-09T06:16:34;18.70;99.90
14079;DHT22;7115;50.150;8.568;2023-05-09T06:19:01;18.80;99.90
14079;DHT22;7115;50.150;8.568;2023-05-09T06:21:29;18.70;99.90
14079;DHT22;7115;50.150;8.568;2023-05-09T06:23:56;18.70;99.90
14079;DHT22;7115;50.150;8.568;2023-05-09T06:26:37;18.70;99.90
14079;DHT22;7115;50.150;8.568;2023-05-09T06:29:04;18.70;99.90
14079;DHT22;7115;50.150;8.568;2023-05-09T06:31:32;18.70;99.90
14079;DHT22;7115;50.150;8.568;2023-05-09T06:34:04;18.70;99.90
14079;DHT22;7115;50.150;8.568;2023-05-09T06:36:32;18.70;99.90
14079;DHT22;7115;50.150;8.568;2023-05-09T06:38:59;18.80;99.90
14079;DHT22;7115;50.150;8.568;2023-05-09T06:41:26;18.80;99.90
14079;DHT22;7115;50.150;8.568;2023-05-09T06:43:53;18.80;99.90
14079;DHT22;7115;50.150;8.568;2023-05-09T06:46:20;18.90;99.90
14079;DHT22;7115;50.150;8.568;2023-05-09T06:48:47;18.90;99.90
14079;DHT22;7115;50.150;8.568;2023-05-09T06:51:14;18.80;99.90
14079;DHT22;7115;50.150;8.568;2023-05-09T06:53:43;18.90;99.90
14079;DHT22;7115;50.150;8.568;2023-05-09T06:56:10;18.90;99.90
14079;DHT22;7115;50.150;8.568;2023-05-09T06:58:37;18.90;99.90
14079;DHT22;7115;50.150;8.568;2023-05-09T07:01:04;19.00;99.90
14079;DHT22;7115;50.150;8.568;2023-05-09T07:03:31;19.10;99.90
14079;DHT22;7115;50.150;8.568;2023-05-09T07:05:58;19.20;99.90
14079;DHT22;7115;50.150;8.568;2023-05-09T07:08:25;19.40;99.90
14079;DHT22;7115;50.150;8.568;2023-05-09T07:10:54;19.60;99.90
14079;DHT22;7115;50.150;8.568;2023-05-09T07:13:21;19.70;99.90
14079;DHT22;7115;50.150;8.568;2023-05-09T07:15:48;19.80;99.90
14079;DHT22;7115;50.150;8.568;2023-05-09T07:18:15;19.80;99.90
14079;DHT22;7115;50.150;8.568;2023-05-09T07:20:42;19.80;99.90
14079;DHT22;7115;50.150;8.568;2023-05-09T07:23:09;19.90;99.90
14079;DHT22;7115;50.150;8.568;2023-05-09T07:25:36;19.80;99.90
14079;DHT22;7115;50.150;8.568;2023-05-09T07:28:04;19.80;99.90
14079;DHT22;7115;50.150;8.568;2023-05-09T07:30:31;19.70;99.90
14079;DHT22;7115;50.150;8.568;2023-05-09T07:32:58;19.70;99.90
14079;DHT22;7115;50.150;8.568;2023-05-09T07:35:27;19.50;99.90
14079;DHT22;7115;50.150;8.568;2023-05-09T07:37:54;19.30;99.90
14079;DHT22;7115;50.150;8.568;2023-05-09T07:40:21;19.10;99.90
14079;DHT22;7115;50.150;8.568;2023-05-09T07:42:48;19.10;99.90
14079;DHT22;7115;50.150;8.568;2023-05-09T07:45:16;19.00;99.90
14079;DHT22;7115;50.150;8.568;2023-05-09T07:47:46;18.90;99.90
14079;DHT22;7115;50.150;8.568;2023-05-09T07:50:14;18.90;99.90
14079;DHT22;7115;50.150;8.568;2023-05-09T07:52:41;18.90;99.90
14079;DHT22;7115;50.150;8.568;2023-05-09T07:55:08;18.90;99.90
14079;DHT22;7115;50.150;8.568;2023-05-09T07:57:35;18.90;99.90
14079;DHT22;7115;50.150;8.568;2023-05-09T08:00:02;18.90;99.90
14079;DHT22;7115;50.150;8.568;2023-05-09T08:02:33;19.00;99.90
14079;DHT22;7115;50.150;8.568;2023-05-09T08:05:00;19.00;99.90
14079;DHT22;7115;50.150;8.568;2023-05-09T08:07:27;19.00;99.90
14079;DHT22;7115;50.150;8.568;2023-05-09T08:09:54;18.90;99.90
14079;DHT22;7115;50.150;8.568;2023-05-09T08:12:21;18.90;99.90
14079;DHT22;7115;50.150;8.568;2023-05-09T08:14:48;18.90;99.90
14079;DHT22;7115;50.150;8.568;2023-05-09T08:17:15;18.90;99.90
14079;DHT22;7115;50.150;8.568;2023-05-09T08:19:44;18.80;99.90
14079;DHT22;7115;50.150;8.568;2023-05-09T08:22:15;18.80;99.90
14079;DHT22;7115;50.150;8.568;2023-05-09T08:24:43;18.70;99.90
14079;DHT22;7115;50.150;8.568;2023-05-09T08:27:11;18.70;99.90
14079;DHT22;7115;50.150;8.568;2023-05-09T08:29:39;18.70;99.90
14079;DHT22;7115;50.150;8.568;2023-05-09T08:32:07;18.70;99.90
14079;DHT22;7115;50.150;8.568;2023-05-09T08:34:34;18.70;99.90
14079;DHT22;7115;50.150;8.568;2023-05-09T08:37:03;18.60;99.90
14079;DHT22;7115;50.150;8.568;2023-05-09T08:39:32;18.60;99.90
14079;DHT22;7115;50.150;8.568;2023-05-09T08:42:01;18.50;99.90
14079;DHT22;7115;50.150;8.568;2023-05-09T08:44:29;18.50;99.90
14079;DHT22;7115;50.150;8.568;2023-05-09T08:46:59;18.50;99.90
14079;DHT22;7115;50.150;8.568;2023-05-09T08:49:26;18.50;99.90
14079;DHT22;7115;50.150;8.568;2023-05-09T08:51:54;18.60;99.90
14079;DHT22;7115;50.150;8.568;2023-05-09T08:54:23;18.60;99.90
14079;DHT22;7115;50.150;8.568;2023-05-09T08:56:51;18.60;99.90
14079;DHT22;7115;50.150;8.568;2023-05-09T08:59:18;18.50;99.90
14079;DHT22;7115;50.150;8.568;2023-05-09T09:01:45;18.50;99.90
14079;DHT22;7115;50.150;8.568;2023-05-09T09:04:13;18.60;99.90
14079;DHT22;7115;50.150;8.568;2023-05-09T09:06:40;18.60;99.90
14079;DHT22;7115;50.150;8.568;2023-05-09T09:09:08;18.60;99.90
14079;DHT22;7115;50.150;8.568;2023-05-09T09:11:39;18.70;99.90
14079;DHT22;7115;50.150;8.568;2023-05-09T09:14:11;18.80;99.90
14079;DHT22;7115;50.150;8.568;2023-05-09T09:16:43;18.90;99.90
14079;DHT22;7115;50.150;8.568;2023-05-09T09:19:12;18.90;99.90
14079;DHT22;7115;50.150;8.568;2023-05-09T09:21:44;18.90;99.90
14079;DHT22;7115;50.150;8.568;2023-05-09T09:24:13;18.90;99.90
14079;DHT22;7115;50.150;8.568;2023-05-09T09:26:47;18.90;99.90
14079;DHT22;7115;50.150;8.568;2023-05-09T09:29:15;18.90;99.90
14079;DHT22;7115;50.150;8.568;2023-05-09T09:31:44;18.90;99.90
14079;DHT22;7115;50.150;8.568;2023-05-09T09:34:12;18.90;99.90
14079;DHT22;7115;50.150;8.568;2023-05-09T09:36:42;18.90;99.90
14079;DHT22;7115;50.150;8.568;2023-05-09T09:39:12;18.90;99.90
14079;DHT22;7115;50.150;8.568;2023-05-09T09:41:39;18.80;99.90
14079;DHT22;7115;50.150;8.568;2023-05-09T09:44:08;18.80;99.90
14079;DHT22;7115;50.150;8.568;2023-05-09T09:46:43;18.80;99.90
14079;DHT22;7115;50.150;8.568;2023-05-09T09:49:11;18.80;99.90
14079;DHT22;7115;50.150;8.568;2023-05-09T09:51:39;18.80;99.90
14079;DHT22;7115;50.150;8.568;2023-05-09T09:54:07;18.80;99.90
14079;DHT22;7115;50.150;8.568;2023-05-09T09:56:38;18.90;99.90
14079;DHT22;7115;50.150;8.568;2023-05-09T09:59:11;19.00;99.90
14079;DHT22;7115;50.150;8.568;2023-05-09T10:01:56;19.10;99.90
14079;DHT22;7115;50.150;8.568;2023-05-09T10:04:25;19.20;99.90
14079;DHT22;7115;50.150;8.568;2023-05-09T10:06:53;19.20;99.90
14079;DHT22;7115;50.150;8.568;2023-05-09T10:09:21;19.30;99.90
14079;DHT22;7115;50.150;8.568;2023-05-09T10:11:49;19.30;99.90
14079;DHT22;7115;50.150;8.568;2023-05-09T10:14:20;19.30;99.90
14079;DHT22;7115;50.150;8.568;2023-05-09T10:16:48;19.40;99.90
14079;DHT22;7115;50.150;8.568;2023-05-09T10:19:20;19.40;99.90
14079;DHT22;7115;50.150;8.568;2023-05-09T10:21:50;19.40;99.90
14079;DHT22;7115;50.150;8.568;2023-05-09T10:24:21;19.50;99.90
14079;DHT22;7115;50.150;8.568;2023-05-09T10:26:52;19.50;99.90
14079;DHT22;7115;50.150;8.568;2023-05-09T10:29:26;19.50;99.90
14079;DHT22;7115;50.150;8.568;2023-05-09T10:31:58;19.50;99.90
14079;DHT22;7115;50.150;8.568;2023-05-09T10:34:27;19.60;99.90
14079;DHT22;7115;50.150;8.568;2023-05-09T10:36:57;19.60;99.90
14079;DHT22;7115;50.150;8.568;2023-05-09T10:39:26;19.50;99.90
14079;DHT22;7115;50.150;8.568;2023-05-09T10:41:54;19.70;99.90
14079;DHT22;7115;50.150;8.568;2023-05-09T10:44:23;19.80;99.90
14079;DHT22;7115;50.150;8.568;2023-05-09T10:46:50;19.90;99.90
14079;DHT22;7115;50.150;8.568;2023-05-09T10:49:19;20.00;99.90
14079;DHT22;7115;50.150;8.568;2023-05-09T10:51:48;20.00;99.90
14079;DHT22;7115;50.150;8.568;2023-05-09T10:54:25;20.20;99.90
14079;DHT22;7115;50.150;8.568;2023-05-09T10:56:55;20.30;99.90
14079;DHT22;7115;50.150;8.568;2023-05-09T10:59:35;20.30;99.90
14079;DHT22;7115;50.150;8.568;2023-05-09T11:02:03;20.40;99.90
14079;DHT22;7115;50.150;8.568;2023-05-09T11:04:31;20.50;99.90
14079;DHT22;7115;50.150;8.568;2023-05-09T11:06:58;20.40;99.90
14079;DHT22;7115;50.150;8.568;2023-05-09T11:09:28;20.50;99.90
14079;DHT22;7115;50.150;8.568;2023-05-09T11:11:57;20.40;99.90
14079;DHT22;7115;50.150;8.568;2023-05-09T11:14:37;20.30;99.90
14079;DHT22;7115;50.150;8.568;2023-05-09T11:17:05;20.30;99.90
14079;DHT22;7115;50.150;8.568;2023-05-09T11:19:34;20.20;99.90
14079;DHT22;7115;50.150;8.568;2023-05-09T11:22:11;20.20;99.90
14079;DHT22;7115;50.150;8.568;2023-05-09T11:24:39;20.20;99.90
14079;DHT22;7115;50.150;8.568;2023-05-09T11:27:14;20.20;99.90
14079;DHT22;7115;50.150;8.568;2023-05-09T11:29:50;20.20;99.90
14079;DHT22;7115;50.150;8.568;2023-05-09T11:32:18;20.20;99.90
14079;DHT22;7115;50.150;8.568;2023-05-09T11:34:45;20.20;99.90
14079;DHT22;7115;50.150;8.568;2023-05-09T11:37:14;20.20;99.90
14079;DHT22;7115;50.150;8.568;2023-05-09T11:39:55;20.10;99.90
14079;DHT22;7115;50.150;8.568;2023-05-09T11:42:24;20.10;99.90
14079;DHT22;7115;50.150;8.568;2023-05-09T11:44:53;20.00;99.90
14079;DHT22;7115;50.150;8.568;2023-05-09T11:47:20;19.90;99.90
14079;DHT22;7115;50.150;8.568;2023-05-09T11:49:47;19.80;99.90
14079;DHT22;7115;50.150;8.568;2023-05-09T11:52:15;19.70;99.90
14079;DHT22;7115;50.150;8.568;2023-05-09T11:54:42;19.60;99.90
14079;DHT22;7115;50.150;8.568;2023-05-09T11:57:10;19.50;99.90
14079;DHT22;7115;50.150;8.568;2023-05-09T11:59:43;19.40;99.90
14079;DHT22;7115;50.150;8.568;2023-05-09T12:02:13;19.40;99.90
14079;DHT22;7115;50.150;8.568;2023-05-09T12:04:40;19.30;99.90
14079;DHT22;7115;50.150;8.568;2023-05-09T12:07:10;19.30;99.90
14079;DHT22;7115;50.150;8.568;2023-05-09T12:09:37;19.20;99.90
14079;DHT22;7115;50.150;8.568;2023-05-09T12:12:08;19.10;99.90
14079;DHT22;7115;50.150;8.568;2023-05-09T12:14:37;19.00;99.90
14079;DHT22;7115;50.150;8.568;2023-05-09T12:17:05;19.00;99.90
14079;DHT22;7115;50.150;8.568;2023-05-09T12:19:34;19.00;99.90
14079;DHT22;7115;50.150;8.568;2023-05-09T12:22:03;19.00;99.90
14079;DHT22;7115;50.150;8.568;2023-05-09T12:24:34;19.00;99.90
14079;DHT22;7115;50.150;8.568;2023-05-09T12:27:02;19.00;99.90
14079;DHT22;7115;50.150;8.568;2023-05-09T12:29:30;19.00;99.90
14079;DHT22;7115;50.150;8.568;2023-05-09T12:31:57;19.20;99.90
14079;DHT22;7115;50.150;8.568;2023-05-09T12:34:25;19.30;99.90
14079;DHT22;7115;50.150;8.568;2023-05-09T12:36:54;19.40;99.90
14079;DHT22;7115;50.150;8.568;2023-05-09T12:39:20;19.60;99.90
14079;DHT22;7115;50.150;8.568;2023-05-09T12:41:49;19.80;99.90
14079;DHT22;7115;50.150;8.568;2023-05-09T12:44:27;20.10;99.90
14079;DHT22;7115;50.150;8.568;2023-05-09T12:46:56;20.30;99.90
14079;DHT22;7115;50.150;8.568;2023-05-09T12:49:24;20.40;99.90
14079;DHT22;7115;50.150;8.568;2023-05-09T12:51:54;20.50;99.90
14079;DHT22;7115;50.150;8.568;2023-05-09T12:54:22;20.50;99.90
14079;DHT22;7115;50.150;8.568;2023-05-09T12:56:50;20.50;99.90
14079;DHT22;7115;50.150;8.568;2023-05-09T12:59:21;20.50;99.90
14079;DHT22;7115;50.150;8.568;2023-05-09T13:01:54;20.50;99.90
14079;DHT22;7115;50.150;8.568;2023-05-09T13:04:23;20.50;99.90
14079;DHT22;7115;50.150;8.568;2023-05-09T13:06:51;20.50;99.90
14079;DHT22;7115;50.150;8.568;2023-05-09T13:09:21;20.60;99.90
14079;DHT22;7115;50.150;8.568;2023-05-09T13:11:48;20.60;99.90
14079;DHT22;7115;50.150;8.568;2023-05-09T13:14:17;20.60;99.90
14079;DHT22;7115;50.150;8.568;2023-05-09T13:16:44;20.60;99.90
14079;DHT22;7115;50.150;8.568;2023-05-09T13:19:12;20.60;99.90
14079;DHT22;7115;50.150;8.568;2023-05-09T13:21:39;20.50;99.90
14079;DHT22;7115;50.150;8.568;2023-05-09T13:24:06;20.50;99.90
14079;DHT22;7115;50.150;8.568;2023-05-09T13:26:35;20.50;99.90
14079;DHT22;7115;50.150;8.568;2023-05-09T13:29:01;20.40;99.90
14079;DHT22;7115;50.150;8.568;2023-05-09T13:31:29;20.40;99.90
14079;DHT22;7115;50.150;8.568;2023-05-09T13:33:56;20.40;99.90
14079;DHT22;7115;50.150;8.568;2023-05-09T13:36:23;20.30;99.90
14079;DHT22;7115;50.150;8.568;2023-05-09T13:38:50;20.30;99.90
14079;DHT22;7115;50.150;8.568;2023-05-09T13:41:17;20.30;99.90
14079;DHT22;7115;50.150;8.568;2023-05-09T13:43:50;20.30;99.90
14079;DHT22;7115;50.150;8.568;2023-05-09T13:46:17;20.20;99.90
14079;DHT22;7115;50.150;8.568;2023-05-09T13:48:44;20.20;99.90
14079;DHT22;7115;50.150;8.568;2023-05-09T13:51:12;20.20;99.90
14079;DHT22;7115;50.150;8.568;2023-05-09T13:53:40;20.30;99.90
14079;DHT22;7115;50.150;8.568;2023-05-09T13:56:07;20.30;99.90
14079;DHT22;7115;50.150;8.568;2023-05-09T13:58:35;20.40;99.90
14079;DHT22;7115;50.150;8.568;2023-05-09T14:01:03;20.40;99.90
14079;DHT22;7115;50.150;8.568;2023-05-09T14:03:30;20.50;99.90
14079;DHT22;7115;50.150;8.568;2023-05-09T14:05:57;20.60;99.90
14079;DHT22;7115;50.150;8.568;2023-05-09T14:08:25;20.60;99.90
14079;DHT22;7115;50.150;8.568;2023-05-09T14:10:52;20.70;99.90
14079;DHT22;7115;50.150;8.568;2023-05-09T14:13:19;20.70;99.90
14079;DHT22;7115;50.150;8.568;2023-05-09T14:15:46;20.80;99.90
14079;DHT22;7115;50.150;8.568;2023-05-09T14:18:14;20.80;99.90
14079;DHT22;7115;50.150;8.568;2023-05-09T14:20:46;20.80;99.90
14079;DHT22;7115;50.150;8.568;2023-05-09T14:23:13;20.80;99.90
14079;DHT22;7115;50.150;8.568;2023-05-09T14:25:40;20.80;99.90
14079;DHT22;7115;50.150;8.568;2023-05-09T14:28:07;20.90;99.90
14079;DHT22;7115;50.150;8.568;2023-05-09T14:30:35;20.90;99.90
14079;DHT22;7115;50.150;8.568;2023-05-09T14:33:02;20.90;99.90
14079;DHT22;7115;50.150;8.568;2023-05-09T14:35:30;21.00;99.90
14079;DHT22;7115;50.150;8.568;2023-05-09T14:38:00;20.90;99.90
14079;DHT22;7115;50.150;8.568;2023-05-09T14:40:27;20.90;99.90
14079;DHT22;7115;50.150;8.568;2023-05-09T14:42:57;20.80;99.90
14079;DHT22;7115;50.150;8.568;2023-05-09T14:45:24;20.70;99.90
14079;DHT22;7115;50.150;8.568;2023-05-09T14:47:52;20.70;99.90
14079;DHT22;7115;50.150;8.568;2023-05-09T14:50:19;20.60;99.90
14079;DHT22;7115;50.150;8.568;2023-05-09T14:52:49;20.60;99.90
14079;DHT22;7115;50.150;8.568;2023-05-09T14:55:18;20.50;99.90
14079;DHT22;7115;50.150;8.568;2023-05-09T14:57:45;20.50;99.90
14079;DHT22;7115;50.150;8.568;2023-05-09T15:00:13;20.40;99.90
14079;DHT22;7115;50.150;8.568;2023-05-09T15:02:48;20.40;99.90
14079;DHT22;7115;50.150;8.568;2023-05-09T15:05:15;20.30;99.90
14079;DHT22;7115;50.150;8.568;2023-05-09T15:07:42;20.30;99.90
14079;DHT22;7115;50.150;8.568;2023-05-09T15:10:10;20.20;99.90
14079;DHT22;7115;50.150;8.568;2023-05-09T15:12:37;20.20;99.90
14079;DHT22;7115;50.150;8.568;2023-05-09T15:15:12;20.20;99.90
14079;DHT22;7115;50.150;8.568;2023-05-09T15:17:39;20.20;99.90
14079;DHT22;7115;50.150;8.568;2023-05-09T15:20:07;20.10;99.90
14079;DHT22;7115;50.150;8.568;2023-05-09T15:22:34;20.10;99.90
14079;DHT22;7115;50.150;8.568;2023-05-09T15:25:01;20.10;99.90
14079;DHT22;7115;50.150;8.568;2023-05-09T15:27:33;19.90;99.90
14079;DHT22;7115;50.150;8.568;2023-05-09T15:30:00;19.80;99.90
14079;DHT22;7115;50.150;8.568;2023-05-09T15:32:26;19.80;99.90
14079;DHT22;7115;50.150;8.568;2023-05-09T15:34:54;19.70;99.90
14079;DHT22;7115;50.150;8.568;2023-05-09T15:37:20;19.70;99.90
14079;DHT22;7115;50.150;8.568;2023-05-09T15:39:47;19.70;99.90
14079;DHT22;7115;50.150;8.568;2023-05-09T15:42:15;19.70;99.90
14079;DHT22;7115;50.150;8.568;2023-05-09T15:44:43;19.60;99.90
14079;DHT22;7115;50.150;8.568;2023-05-09T15:47:10;19.50;99.90
14079;DHT22;7115;50.150;8.568;2023-05-09T15:49:37;19.40;99.90
14079;DHT22;7115;50.150;8.568;2023-05-09T15:52:07;19.30;99.90
14079;DHT22;7115;50.150;8.568;2023-05-09T15:54:35;19.20;99.90